createdAt,value
2023-04-24T00:00:36.583Z,280.29
2023-04-24T00:01:36.581Z,280.77
2023-04-24T00:02:36.648Z,281.25
2023-04-24T00:03:36.756Z,282.70
2023-04-24T00:04:35.214Z,282.94
2023-04-24T00:05:36.513Z,285.65
2023-04-24T00:06:36.514Z,285.16
2023-04-24T00:07:36.487Z,286.90
2023-04-24T00:08:36.469Z,285.16
2023-04-24T00:09:36.476Z,286.65
2023-04-24T00:10:36.448Z,285.90
2023-04-24T00:11:36.425Z,287.66
2023-04-24T00:12:36.425Z,284.66
2023-04-24T00:13:36.404Z,285.90
2023-04-24T00:14:36.409Z,286.40
2023-04-24T00:15:36.392Z,284.42
2023-04-24T00:16:36.388Z,284.91
2023-04-24T00:17:36.359Z,283.19
2023-04-24T00:18:36.351Z,281.97
2023-04-24T00:19:36.346Z,283.43
2023-04-24T00:20:36.308Z,283.92
2023-04-24T00:21:36.300Z,281.73
2023-04-24T00:22:36.305Z,281.01
2023-04-24T00:23:36.271Z,283.92
2023-04-24T00:24:36.288Z,285.40
2023-04-24T00:25:36.274Z,284.42
2023-04-24T00:26:36.229Z,286.65
2023-04-24T00:27:36.235Z,285.16
2023-04-24T00:28:36.205Z,283.68
2023-04-24T00:29:36.203Z,285.90
2023-04-24T00:30:36.181Z,285.90
2023-04-24T00:31:36.196Z,285.16
2023-04-24T00:32:36.181Z,286.15
2023-04-24T00:33:36.135Z,286.65
2023-04-24T00:34:36.148Z,286.15
2023-04-24T00:35:36.109Z,286.65
2023-04-24T00:36:36.100Z,286.90
2023-04-24T00:37:36.089Z,288.16
2023-04-24T00:38:36.088Z,287.15
2023-04-24T00:39:36.075Z,287.66
2023-04-24T00:40:36.040Z,286.40
2023-04-24T00:41:36.039Z,285.65
2023-04-24T00:42:36.033Z,285.65
2023-04-24T00:43:36.011Z,285.90
2023-04-24T00:44:36.026Z,285.16
2023-04-24T00:45:35.980Z,283.43
2023-04-24T00:46:36.020Z,280.29
2023-04-24T00:47:35.998Z,280.77
2023-04-24T00:48:35.933Z,277.21
2023-04-24T00:49:35.923Z,273.74
2023-04-24T00:50:35.930Z,272.83
2023-04-24T00:51:35.895Z,268.14
2023-04-24T00:52:35.910Z,265.33
2023-04-24T00:53:35.856Z,262.99
2023-04-24T00:54:35.858Z,260.90
2023-04-24T00:55:35.859Z,259.04
2023-04-24T00:56:35.823Z,254.23
2023-04-24T00:57:35.811Z,254.42
2023-04-24T00:58:35.822Z,253.05
2023-04-24T00:59:36.123Z,251.88
2023-04-24T01:00:35.803Z,251.69
2023-04-24T01:01:35.792Z,251.69
2023-04-24T01:02:35.980Z,250.35
2023-04-24T01:03:35.883Z,251.30
2023-04-24T01:04:34.746Z,250.92
2023-04-24T01:05:35.729Z,252.85
2023-04-24T01:06:35.703Z,251.50
2023-04-24T01:07:35.692Z,252.27
2023-04-24T01:08:34.630Z,249.21
2023-04-24T01:09:35.648Z,250.92
2023-04-24T01:10:35.652Z,251.69
2023-04-24T01:11:35.620Z,254.23
2023-04-24T01:12:35.240Z,255.01
2023-04-24T01:13:35.596Z,256.21
2023-04-24T01:14:35.589Z,255.61
2023-04-24T01:15:35.615Z,257.42
2023-04-24T01:16:34.109Z,257.21
2023-04-24T01:17:35.561Z,259.66
2023-04-24T01:18:35.541Z,259.45
2023-04-24T01:19:35.542Z,260.48
2023-04-24T01:20:34.620Z,262.15
2023-04-24T01:21:35.497Z,260.90
2023-04-24T01:22:35.480Z,263.20
2023-04-24T01:23:35.481Z,263.20
2023-04-24T01:24:35.451Z,264.26
2023-04-24T01:25:35.460Z,266.62
2023-04-24T01:26:35.428Z,266.40
2023-04-24T01:27:35.412Z,265.54
2023-04-24T01:28:35.413Z,267.93
2023-04-24T01:29:35.385Z,266.84
2023-04-24T01:30:35.388Z,267.27
2023-04-24T01:31:35.390Z,267.93
2023-04-24T01:32:35.381Z,269.47
2023-04-24T01:33:35.332Z,269.91
2023-04-24T01:34:35.325Z,269.69
2023-04-24T01:35:35.316Z,270.58
2023-04-24T01:36:35.284Z,271.02
2023-04-24T01:37:35.271Z,269.02
2023-04-24T01:38:35.275Z,271.70
2023-04-24T01:39:35.291Z,272.83
2023-04-24T01:40:35.260Z,271.02
2023-04-24T01:41:35.255Z,272.60
2023-04-24T01:42:35.219Z,274.42
2023-04-24T01:43:35.190Z,273.05
2023-04-24T01:44:35.178Z,273.28
2023-04-24T01:45:35.198Z,275.35
2023-04-24T01:46:35.182Z,275.58
2023-04-24T01:47:35.249Z,273.74
2023-04-24T01:48:35.119Z,276.51
2023-04-24T01:49:35.110Z,277.44
2023-04-24T01:50:35.160Z,276.04
2023-04-24T01:51:35.100Z,277.21
2023-04-24T01:52:35.082Z,277.21
2023-04-24T01:53:35.058Z,278.38
2023-04-24T01:54:35.050Z,278.62
2023-04-24T01:55:35.041Z,278.62
2023-04-24T01:56:35.017Z,278.86
2023-04-24T01:57:35.001Z,279.81
2023-04-24T01:58:34.982Z,281.01
2023-04-24T01:59:34.972Z,280.52
2023-04-24T02:00:35.004Z,280.05
2023-04-24T02:01:34.951Z,281.73
2023-04-24T02:02:35.087Z,279.09
2023-04-24T02:03:35.150Z,281.25
2023-04-24T02:04:33.910Z,284.17
2023-04-24T02:05:34.916Z,282.21
2023-04-24T02:06:34.890Z,285.65
2023-04-24T02:07:34.875Z,285.40
2023-04-24T02:08:34.855Z,286.65
2023-04-24T02:09:34.841Z,284.66
2023-04-24T02:10:34.837Z,287.40
2023-04-24T02:11:34.818Z,286.65
2023-04-24T02:12:34.795Z,288.92
2023-04-24T02:13:34.783Z,288.92
2023-04-24T02:14:34.779Z,288.92
2023-04-24T02:15:34.780Z,289.94
2023-04-24T02:16:34.813Z,289.69
2023-04-24T02:17:34.739Z,289.43
2023-04-24T02:18:34.715Z,291.75
2023-04-24T02:19:34.708Z,293.84
2023-04-24T02:20:33.595Z,292.79
2023-04-24T02:21:34.667Z,293.31
2023-04-24T02:22:34.659Z,296.76
2023-04-24T02:23:34.647Z,295.96
2023-04-24T02:24:34.632Z,297.03
2023-04-24T02:25:34.625Z,298.11
2023-04-24T02:26:34.621Z,298.11
2023-04-24T02:27:34.578Z,297.30
2023-04-24T02:28:34.609Z,297.57
2023-04-24T02:29:34.598Z,299.47
2023-04-24T02:30:34.577Z,299.74
2023-04-24T02:31:34.542Z,302.23
2023-04-24T02:32:33.582Z,299.20
2023-04-24T02:33:34.496Z,302.79
2023-04-24T02:34:34.499Z,300.29
2023-04-24T02:35:34.554Z,301.12
2023-04-24T02:36:34.471Z,301.40
2023-04-24T02:37:34.457Z,302.23
2023-04-24T02:38:34.454Z,303.07
2023-04-24T02:39:34.423Z,303.63
2023-04-24T02:40:34.420Z,306.75
2023-04-24T02:41:34.405Z,306.75
2023-04-24T02:42:34.383Z,307.90
2023-04-24T02:43:34.364Z,310.23
2023-04-24T02:44:34.345Z,310.52
2023-04-24T02:45:34.347Z,312.00
2023-04-24T02:46:34.346Z,312.30
2023-04-24T02:47:34.339Z,313.19
2023-04-24T02:48:34.300Z,314.09
2023-04-24T02:49:34.292Z,316.82
2023-04-24T02:50:34.271Z,317.74
2023-04-24T02:51:34.265Z,317.74
2023-04-24T02:52:32.899Z,318.67
2023-04-24T02:53:34.237Z,318.05
2023-04-24T02:54:34.218Z,322.11
2023-04-24T02:55:34.197Z,321.79
2023-04-24T02:56:34.198Z,322.11
2023-04-24T02:57:34.178Z,326.27
2023-04-24T02:58:34.164Z,327.25
2023-04-24T02:59:34.145Z,327.90
2023-04-24T03:00:34.125Z,331.21
2023-04-24T03:01:34.155Z,330.21
2023-04-24T03:02:34.188Z,333.91
2023-04-24T03:03:34.167Z,335.96
2023-04-24T03:04:34.290Z,335.62
2023-04-24T03:05:34.065Z,335.96
2023-04-24T03:06:34.059Z,339.79
2023-04-24T03:07:34.051Z,339.79
2023-04-24T03:08:34.019Z,341.91
2023-04-24T03:09:34.013Z,341.91
2023-04-24T03:10:34.009Z,345.51
2023-04-24T03:11:34.009Z,345.15
2023-04-24T03:12:33.982Z,350.68
2023-04-24T03:13:33.950Z,349.93
2023-04-24T03:14:33.950Z,351.06
2023-04-24T03:15:33.925Z,351.81
2023-04-24T03:16:32.676Z,354.47
2023-04-24T03:17:34.004Z,356.40
2023-04-24T03:18:33.916Z,357.95
2023-04-24T03:19:33.884Z,356.78
2023-04-24T03:20:33.873Z,361.10
2023-04-24T03:21:33.913Z,359.91
2023-04-24T03:22:33.933Z,359.52
2023-04-24T03:23:33.819Z,362.30
2023-04-24T03:24:32.708Z,362.70
2023-04-24T03:25:33.795Z,362.70
2023-04-24T03:26:33.800Z,365.53
2023-04-24T03:27:33.765Z,365.12
2023-04-24T03:28:33.763Z,365.53
2023-04-24T03:29:33.751Z,365.12
2023-04-24T03:30:33.742Z,366.34
2023-04-24T03:31:33.755Z,366.34
2023-04-24T03:32:32.695Z,367.99
2023-04-24T03:33:33.714Z,367.58
2023-04-24T03:34:33.680Z,367.99
2023-04-24T03:35:33.666Z,367.99
2023-04-24T03:36:33.677Z,366.34
2023-04-24T03:37:33.631Z,369.23
2023-04-24T03:38:33.624Z,366.75
2023-04-24T03:39:33.624Z,366.75
2023-04-24T03:40:32.654Z,369.23
2023-04-24T03:41:32.653Z,367.58
2023-04-24T03:42:32.640Z,366.34
2023-04-24T03:43:33.572Z,366.34
2023-04-24T03:44:33.554Z,363.10
2023-04-24T03:45:33.535Z,365.93
2023-04-24T03:46:33.610Z,362.70
2023-04-24T03:47:33.566Z,365.53
2023-04-24T03:48:32.058Z,361.10
2023-04-24T03:49:33.478Z,360.70
2023-04-24T03:50:33.470Z,364.31
2023-04-24T03:51:32.967Z,363.50
2023-04-24T03:52:33.506Z,363.10
2023-04-24T03:53:33.429Z,362.70
2023-04-24T03:54:33.424Z,361.90
2023-04-24T03:55:33.402Z,361.90
2023-04-24T03:56:33.395Z,365.12
2023-04-24T03:57:33.373Z,363.50
2023-04-24T03:58:33.350Z,361.50
2023-04-24T03:59:33.347Z,361.90
2023-04-24T04:00:33.330Z,365.12
2023-04-24T04:01:33.342Z,363.50
2023-04-24T04:02:33.411Z,367.16
2023-04-24T04:03:33.549Z,364.71
2023-04-24T04:04:32.117Z,368.81
2023-04-24T04:05:33.256Z,366.75
2023-04-24T04:06:33.266Z,368.81
2023-04-24T04:07:33.238Z,367.16
2023-04-24T04:08:33.234Z,369.64
2023-04-24T04:09:33.199Z,367.16
2023-04-24T04:10:33.197Z,368.81
2023-04-24T04:11:33.190Z,372.16
2023-04-24T04:12:33.157Z,369.23
2023-04-24T04:13:33.151Z,370.48
2023-04-24T04:14:33.142Z,370.48
2023-04-24T04:15:33.115Z,369.64
2023-04-24T04:16:33.160Z,371.74
2023-04-24T04:17:33.163Z,371.32
2023-04-24T04:18:33.075Z,372.16
2023-04-24T04:19:33.089Z,370.06
2023-04-24T04:20:31.600Z,370.48
2023-04-24T04:21:33.059Z,368.40
2023-04-24T04:22:33.026Z,366.75
2023-04-24T04:23:32.515Z,370.06
2023-04-24T04:24:33.030Z,363.50
2023-04-24T04:25:32.985Z,363.50
2023-04-24T04:26:32.969Z,365.53
2023-04-24T04:27:31.520Z,361.90
2023-04-24T04:28:31.928Z,361.10
2023-04-24T04:29:32.930Z,359.13
2023-04-24T04:30:31.466Z,357.56
2023-04-24T04:31:32.004Z,357.56
2023-04-24T04:32:32.958Z,359.91
2023-04-24T04:33:31.922Z,357.95
2023-04-24T04:34:31.993Z,356.01
2023-04-24T04:35:31.924Z,358.73
2023-04-24T04:36:31.416Z,356.78
2023-04-24T04:37:32.865Z,357.17
2023-04-24T04:38:31.497Z,356.78
2023-04-24T04:39:32.797Z,352.57
2023-04-24T04:40:32.792Z,355.62
2023-04-24T04:41:32.806Z,356.01
2023-04-24T04:42:32.768Z,356.01
2023-04-24T04:43:32.745Z,356.78
2023-04-24T04:44:31.284Z,354.09
2023-04-24T04:45:32.752Z,351.43
2023-04-24T04:46:31.645Z,354.09
2023-04-24T04:47:32.727Z,353.71
2023-04-24T04:48:32.674Z,353.71
2023-04-24T04:49:32.665Z,352.57
2023-04-24T04:50:32.650Z,351.06
2023-04-24T04:51:31.783Z,352.95
2023-04-24T04:52:31.181Z,351.06
2023-04-24T04:53:32.626Z,350.68
2023-04-24T04:54:31.543Z,347.71
2023-04-24T04:55:32.583Z,347.34
2023-04-24T04:56:32.581Z,346.24
2023-04-24T04:57:32.565Z,345.88
2023-04-24T04:58:32.554Z,345.51
2023-04-24T04:59:32.537Z,345.15
2023-04-24T05:00:32.606Z,343.70
2023-04-24T05:01:32.559Z,341.20
2023-04-24T05:02:32.548Z,341.91
2023-04-24T05:03:32.615Z,341.20
2023-04-24T05:04:32.666Z,341.20
2023-04-24T05:05:32.450Z,342.27
2023-04-24T05:06:32.438Z,339.44
2023-04-24T05:07:32.425Z,339.79
2023-04-24T05:08:32.397Z,339.08
2023-04-24T05:09:32.419Z,339.44
2023-04-24T05:10:30.953Z,339.79
2023-04-24T05:11:32.379Z,340.14
2023-04-24T05:12:32.352Z,339.44
2023-04-24T05:13:40.325Z,340.85
2023-04-24T05:14:33.336Z,338.73
2023-04-24T05:15:32.343Z,337.34
2023-04-24T05:16:30.880Z,335.96
2023-04-24T05:17:32.358Z,335.62
2023-04-24T05:18:31.838Z,335.62
2023-04-24T05:19:32.258Z,335.62
2023-04-24T05:20:32.268Z,332.55
2023-04-24T05:21:32.266Z,335.96
2023-04-24T05:22:32.229Z,333.57
2023-04-24T05:23:32.211Z,333.23
2023-04-24T05:24:32.210Z,335.96
2023-04-24T05:25:32.202Z,336.65
2023-04-24T05:26:32.176Z,337.34
2023-04-24T05:27:32.179Z,338.39
2023-04-24T05:28:32.150Z,337.34
2023-04-24T05:29:32.155Z,340.85
2023-04-24T05:30:32.113Z,341.56
2023-04-24T05:31:32.168Z,342.98
2023-04-24T05:32:30.649Z,344.06
2023-04-24T05:33:32.057Z,340.85
2023-04-24T05:34:32.051Z,340.49
2023-04-24T05:35:32.044Z,344.79
2023-04-24T05:36:32.034Z,342.27
2023-04-24T05:37:32.040Z,344.42
2023-04-24T05:38:32.002Z,344.06
2023-04-24T05:39:31.982Z,345.88
2023-04-24T05:40:31.975Z,346.24
2023-04-24T05:41:31.984Z,348.45
2023-04-24T05:42:31.959Z,348.08
2023-04-24T05:43:30.757Z,349.19
2023-04-24T05:44:31.915Z,352.57
2023-04-24T05:45:31.935Z,353.33
2023-04-24T05:46:32.087Z,355.62
2023-04-24T05:47:30.796Z,353.71
2023-04-24T05:48:30.747Z,355.24
2023-04-24T05:49:31.862Z,354.85
2023-04-24T05:50:31.836Z,360.70
2023-04-24T05:51:30.754Z,359.13
2023-04-24T05:52:30.761Z,359.52
2023-04-24T05:53:31.808Z,363.50
2023-04-24T05:54:31.813Z,365.53
2023-04-24T05:55:30.767Z,369.64
2023-04-24T05:56:30.313Z,370.06
2023-04-24T05:57:31.937Z,377.30
2023-04-24T05:58:30.761Z,387.69
2023-04-24T05:59:30.761Z,390.88
2023-04-24T06:00:30.761Z,393.64
2023-04-24T06:01:31.693Z,398.82
2023-04-24T06:02:31.771Z,401.71
2023-04-24T06:03:30.855Z,399.06
2023-04-24T06:04:30.644Z,404.39
2023-04-24T06:05:31.844Z,410.36
2023-04-24T06:06:31.620Z,418.86
2023-04-24T06:07:31.626Z,420.71
2023-04-24T06:08:31.590Z,421.25
2023-04-24T06:09:31.578Z,423.65
2023-04-24T06:10:31.577Z,423.92
2023-04-24T06:11:31.560Z,429.11
2023-04-24T06:12:30.147Z,429.38
2023-04-24T06:13:31.541Z,434.99
2023-04-24T06:14:31.516Z,436.98
2023-04-24T06:15:30.126Z,438.13
2023-04-24T06:16:31.515Z,435.84
2023-04-24T06:17:31.514Z,439.86
2023-04-24T06:18:31.465Z,438.99
2023-04-24T06:19:29.989Z,441.03
2023-04-24T06:20:29.990Z,443.08
2023-04-24T06:21:31.450Z,445.15
2023-04-24T06:22:31.414Z,447.84
2023-04-24T06:23:31.401Z,446.64
2023-04-24T06:24:31.373Z,452.40
2023-04-24T06:25:31.362Z,453.63
2023-04-24T06:26:31.366Z,458.62
2023-04-24T06:27:31.345Z,458.30
2023-04-24T06:28:31.330Z,463.72
2023-04-24T06:29:31.334Z,465.99
2023-04-24T06:30:31.316Z,469.93
2023-04-24T06:31:31.325Z,474.28
2023-04-24T06:32:31.290Z,472.60
2023-04-24T06:33:31.288Z,472.93
2023-04-24T06:34:31.237Z,470.26
2023-04-24T06:35:29.790Z,470.26
2023-04-24T06:36:29.760Z,468.94
2023-04-24T06:37:31.210Z,472.60
2023-04-24T06:38:31.172Z,472.93
2023-04-24T06:39:31.165Z,470.93
2023-04-24T06:40:31.160Z,469.60
2023-04-24T06:41:31.145Z,470.93
2023-04-24T06:42:31.148Z,474.28
2023-04-24T06:43:29.661Z,471.93
2023-04-24T06:44:30.013Z,468.61
2023-04-24T06:45:31.116Z,470.93
2023-04-24T06:46:31.163Z,472.26
2023-04-24T06:47:31.139Z,472.60
2023-04-24T06:48:31.041Z,472.26
2023-04-24T06:49:31.050Z,468.61
2023-04-24T06:50:31.026Z,467.30
2023-04-24T06:51:29.557Z,467.30
2023-04-24T06:52:30.027Z,471.59
2023-04-24T06:53:30.017Z,472.26
2023-04-24T06:54:30.061Z,470.93
2023-04-24T06:55:30.949Z,471.59
2023-04-24T06:56:29.505Z,474.28
2023-04-24T06:57:31.145Z,472.93
2023-04-24T06:58:30.928Z,470.26
2023-04-24T06:59:29.560Z,477.33
2023-04-24T07:00:29.601Z,473.94
2023-04-24T07:01:30.903Z,481.12
2023-04-24T07:02:29.777Z,480.43
2023-04-24T07:03:29.755Z,481.82
2023-04-24T07:04:29.805Z,479.39
2023-04-24T07:05:30.814Z,485.32
2023-04-24T07:06:30.799Z,481.12
2023-04-24T07:07:29.364Z,487.10
2023-04-24T07:08:29.810Z,488.88
2023-04-24T07:09:30.764Z,486.74
2023-04-24T07:10:29.876Z,485.32
2023-04-24T07:11:30.737Z,489.96
2023-04-24T07:12:30.732Z,487.81
2023-04-24T07:13:30.728Z,489.24
2023-04-24T07:14:30.696Z,489.24
2023-04-24T07:15:29.525Z,490.32
2023-04-24T07:16:30.765Z,489.96
2023-04-24T07:17:30.689Z,487.45
2023-04-24T07:18:30.635Z,482.51
2023-04-24T07:19:30.623Z,479.05
2023-04-24T07:20:30.660Z,474.61
2023-04-24T07:21:30.600Z,475.63
2023-04-24T07:22:30.589Z,477.67
2023-04-24T07:23:29.110Z,478.70
2023-04-24T07:24:30.952Z,481.47
2023-04-24T07:25:30.548Z,477.67
2023-04-24T07:26:30.531Z,474.95
2023-04-24T07:27:30.521Z,475.97
2023-04-24T07:28:30.508Z,473.94
2023-04-24T07:29:30.492Z,474.61
2023-04-24T07:30:30.478Z,474.28
2023-04-24T07:31:29.069Z,476.65
2023-04-24T07:32:30.470Z,476.65
2023-04-24T07:33:30.436Z,482.16
2023-04-24T07:34:30.434Z,480.77
2023-04-24T07:35:30.405Z,478.02
2023-04-24T07:36:30.384Z,481.82
2023-04-24T07:37:30.384Z,485.68
2023-04-24T07:38:30.365Z,483.91
2023-04-24T07:39:29.064Z,483.56
2023-04-24T07:40:30.332Z,482.51
2023-04-24T07:41:30.323Z,481.82
2023-04-24T07:42:30.311Z,483.91
2023-04-24T07:43:30.301Z,487.45
2023-04-24T07:44:30.281Z,491.40
2023-04-24T07:45:30.259Z,495.05
2023-04-24T07:46:30.308Z,496.52
2023-04-24T07:47:30.336Z,496.52
2023-04-24T07:48:30.229Z,495.79
2023-04-24T07:49:30.220Z,494.68
2023-04-24T07:50:30.221Z,495.79
2023-04-24T07:51:30.195Z,495.79
2023-04-24T07:52:30.189Z,496.16
2023-04-24T07:53:30.159Z,495.05
2023-04-24T07:54:30.147Z,498.75
2023-04-24T07:55:28.678Z,501.76
2023-04-24T07:56:30.114Z,501.00
2023-04-24T07:57:30.132Z,501.38
2023-04-24T07:58:30.094Z,497.27
2023-04-24T07:59:30.089Z,501.38
2023-04-24T08:00:30.134Z,503.65
2023-04-24T08:01:30.059Z,507.87
2023-04-24T08:02:30.086Z,510.59
2023-04-24T08:03:30.140Z,514.53
2023-04-24T08:04:30.236Z,512.16
2023-04-24T08:05:30.053Z,513.74
2023-04-24T08:06:28.881Z,513.74
2023-04-24T08:07:28.872Z,512.55
2023-04-24T08:08:29.952Z,515.33
2023-04-24T08:09:29.940Z,517.33
2023-04-24T08:10:29.933Z,519.34
2023-04-24T08:11:28.870Z,522.60
2023-04-24T08:12:29.910Z,522.19
2023-04-24T08:13:29.884Z,521.78
2023-04-24T08:14:29.867Z,515.73
2023-04-24T08:15:29.856Z,517.73
2023-04-24T08:16:29.268Z,519.74
2023-04-24T08:17:29.847Z,522.60
2023-04-24T08:18:28.912Z,528.81
2023-04-24T08:19:28.552Z,532.19
2023-04-24T08:20:29.797Z,534.75
2023-04-24T08:21:29.765Z,533.47
2023-04-24T08:22:29.771Z,535.18
2023-04-24T08:23:29.760Z,537.77
2023-04-24T08:24:29.737Z,537.34
2023-04-24T08:25:29.717Z,541.70
2023-04-24T08:26:29.705Z,539.51
2023-04-24T08:27:29.658Z,539.95
2023-04-24T08:28:29.685Z,537.34
2023-04-24T08:29:29.662Z,536.90
2023-04-24T08:30:29.664Z,541.26
2023-04-24T08:31:28.859Z,543.47
2023-04-24T08:32:29.650Z,537.34
2023-04-24T08:33:29.621Z,531.77
2023-04-24T08:34:29.596Z,532.61
2023-04-24T08:35:28.123Z,527.56
2023-04-24T08:36:43.429Z,523.83
2023-04-24T08:37:30.557Z,512.95
2023-04-24T08:38:29.555Z,513.74
2023-04-24T08:39:29.551Z,508.26
2023-04-24T08:40:29.522Z,503.27
2023-04-24T08:41:29.503Z,495.05
2023-04-24T08:42:29.479Z,489.96
2023-04-24T08:43:29.475Z,484.27
2023-04-24T08:44:29.460Z,480.08
2023-04-24T08:45:29.444Z,478.02
2023-04-24T08:46:29.476Z,474.28
2023-04-24T08:47:29.418Z,469.60
2023-04-24T08:48:31.557Z,463.40
2023-04-24T08:49:29.398Z,460.20
2023-04-24T08:50:29.380Z,460.20
2023-04-24T08:51:27.908Z,460.52
2023-04-24T08:52:29.357Z,456.73
2023-04-24T08:53:29.369Z,453.63
2023-04-24T08:54:29.327Z,454.25
2023-04-24T08:55:29.309Z,453.32
2023-04-24T08:56:29.350Z,455.49
2023-04-24T08:57:29.293Z,450.56
2023-04-24T08:58:29.263Z,457.05
2023-04-24T08:59:27.800Z,456.73
2023-04-24T09:00:29.236Z,455.49
2023-04-24T09:01:29.267Z,454.56
2023-04-24T09:02:29.335Z,451.78
2023-04-24T09:03:29.427Z,453.32
2023-04-24T09:04:29.365Z,459.25
2023-04-24T09:05:28.540Z,460.20
2023-04-24T09:06:28.165Z,465.67
2023-04-24T09:07:27.700Z,464.69
2023-04-24T09:08:28.142Z,457.67
2023-04-24T09:09:29.106Z,458.62
2023-04-24T09:10:28.179Z,455.80
2023-04-24T09:11:28.142Z,457.36
2023-04-24T09:12:28.307Z,458.93
2023-04-24T09:13:28.163Z,455.49
2023-04-24T09:14:29.047Z,454.25
2023-04-24T09:15:27.725Z,458.62
2023-04-24T09:16:29.165Z,463.08
2023-04-24T09:17:28.193Z,465.34
2023-04-24T09:18:27.557Z,465.67
2023-04-24T09:19:28.989Z,469.60
2023-04-24T09:20:28.986Z,470.93
2023-04-24T09:21:28.958Z,476.99
2023-04-24T09:22:28.947Z,476.99
2023-04-24T09:23:27.498Z,478.36
2023-04-24T09:24:28.913Z,486.74
2023-04-24T09:25:27.750Z,480.43
2023-04-24T09:26:27.810Z,479.05
2023-04-24T09:27:28.886Z,478.70
2023-04-24T09:28:28.886Z,482.16
2023-04-24T09:29:28.867Z,485.68
2023-04-24T09:30:28.352Z,488.52
2023-04-24T09:31:27.429Z,489.24
2023-04-24T09:32:28.830Z,490.68
2023-04-24T09:33:28.804Z,489.96
2023-04-24T09:34:28.781Z,487.81
2023-04-24T09:35:28.768Z,492.49
2023-04-24T09:36:28.762Z,488.52
2023-04-24T09:37:28.750Z,487.81
2023-04-24T09:38:28.742Z,489.24
2023-04-24T09:39:28.726Z,486.39
2023-04-24T09:40:28.716Z,483.56
2023-04-24T09:41:28.710Z,483.21
2023-04-24T09:42:28.691Z,480.43
2023-04-24T09:43:28.673Z,481.12
2023-04-24T09:44:29.226Z,481.82
2023-04-24T09:45:28.646Z,481.47
2023-04-24T09:46:28.707Z,478.36
2023-04-24T09:47:28.610Z,481.82
2023-04-24T09:48:28.606Z,484.27
2023-04-24T09:49:28.597Z,485.32
2023-04-24T09:50:28.569Z,486.03
2023-04-24T09:51:28.697Z,482.51
2023-04-24T09:52:28.547Z,482.16
2023-04-24T09:53:28.548Z,479.05
2023-04-24T09:54:28.524Z,483.91
2023-04-24T09:55:27.183Z,484.27
2023-04-24T09:56:28.542Z,489.96
2023-04-24T09:57:28.488Z,495.79
2023-04-24T09:58:28.464Z,497.27
2023-04-24T09:59:28.448Z,502.51
2023-04-24T10:00:28.449Z,502.13
2023-04-24T10:01:28.438Z,506.33
2023-04-24T10:02:28.474Z,504.79
2023-04-24T10:03:28.414Z,504.41
2023-04-24T10:04:28.454Z,507.87
2023-04-24T10:05:28.363Z,512.55
2023-04-24T10:06:28.359Z,516.12
2023-04-24T10:07:28.351Z,520.15
2023-04-24T10:08:28.344Z,523.42
2023-04-24T10:09:28.320Z,523.42
2023-04-24T10:10:28.304Z,521.78
2023-04-24T10:11:26.850Z,525.07
2023-04-24T10:12:28.280Z,527.14
2023-04-24T10:13:28.258Z,520.56
2023-04-24T10:14:28.241Z,524.24
2023-04-24T10:15:28.223Z,525.48
2023-04-24T10:16:28.434Z,527.98
2023-04-24T10:17:28.201Z,531.34
2023-04-24T10:18:28.221Z,530.07
2023-04-24T10:19:26.985Z,528.39
2023-04-24T10:20:28.174Z,528.39
2023-04-24T10:21:28.152Z,530.92
2023-04-24T10:22:28.130Z,533.47
2023-04-24T10:23:28.125Z,532.61
2023-04-24T10:24:28.104Z,541.26
2023-04-24T10:25:28.097Z,543.47
2023-04-24T10:26:28.075Z,543.47
2023-04-24T10:27:28.073Z,549.29
2023-04-24T10:28:28.066Z,549.29
2023-04-24T10:29:26.991Z,552.01
2023-04-24T10:30:28.030Z,550.19
2023-04-24T10:31:28.084Z,557.09
2023-04-24T10:32:28.044Z,559.89
2023-04-24T10:33:27.992Z,563.68
2023-04-24T10:34:26.992Z,567.52
2023-04-24T10:35:26.990Z,561.78
2023-04-24T10:36:26.990Z,558.02
2023-04-24T10:37:26.994Z,556.62
2023-04-24T10:38:27.006Z,566.55
2023-04-24T10:39:28.719Z,569.46
2023-04-24T10:40:27.894Z,574.86
2023-04-24T10:41:27.879Z,574.36
2023-04-24T10:42:27.002Z,581.37
2023-04-24T10:43:27.858Z,578.85
2023-04-24T10:44:27.860Z,583.41
2023-04-24T10:45:27.820Z,588.04
2023-04-24T10:46:27.831Z,591.69
2023-04-24T10:47:27.811Z,591.16
2023-04-24T10:48:27.806Z,596.99
2023-04-24T10:49:27.767Z,599.67
2023-04-24T10:50:27.766Z,592.21
2023-04-24T10:51:27.736Z,594.33
2023-04-24T10:52:27.726Z,595.39
2023-04-24T10:53:27.759Z,606.21
2023-04-24T10:54:27.754Z,610.65
2023-04-24T10:55:27.194Z,606.21
2023-04-24T10:56:27.668Z,605.66
2023-04-24T10:57:27.655Z,613.46
2023-04-24T10:58:26.212Z,619.73
2023-04-24T10:59:27.655Z,618.58
2023-04-24T11:00:27.625Z,619.73
2023-04-24T11:01:27.757Z,616.87
2023-04-24T11:02:27.638Z,613.46
2023-04-24T11:03:27.809Z,619.16
2023-04-24T11:04:27.626Z,626.72
2023-04-24T11:05:27.553Z,633.27
2023-04-24T11:06:26.682Z,635.68
2023-04-24T11:07:27.510Z,638.73
2023-04-24T11:08:27.509Z,640.57
2023-04-24T11:09:26.057Z,638.12
2023-04-24T11:10:27.473Z,643.66
2023-04-24T11:11:27.471Z,646.16
2023-04-24T11:12:27.447Z,644.28
2023-04-24T11:13:27.445Z,644.91
2023-04-24T11:14:27.415Z,645.53
2023-04-24T11:15:27.399Z,647.41
2023-04-24T11:16:27.408Z,651.20
2023-04-24T11:17:27.382Z,654.40
2023-04-24T11:18:27.373Z,647.41
2023-04-24T11:19:27.410Z,648.67
2023-04-24T11:20:28.450Z,651.84
2023-04-24T11:21:27.323Z,654.40
2023-04-24T11:22:27.290Z,658.93
2023-04-24T11:23:27.304Z,663.52
2023-04-24T11:24:27.282Z,664.18
2023-04-24T11:25:27.256Z,668.17
2023-04-24T11:26:27.240Z,672.89
2023-04-24T11:27:27.234Z,671.53
2023-04-24T11:28:27.232Z,674.93
2023-04-24T11:29:26.668Z,678.36
2023-04-24T11:30:26.306Z,681.83
2023-04-24T11:31:26.299Z,679.06
2023-04-24T11:32:27.259Z,683.23
2023-04-24T11:33:26.022Z,683.23
2023-04-24T11:34:26.246Z,686.75
2023-04-24T11:35:27.110Z,686.04
2023-04-24T11:36:27.150Z,684.63
2023-04-24T11:37:27.106Z,689.59
2023-04-24T11:38:27.071Z,695.34
2023-04-24T11:39:27.084Z,690.30
2023-04-24T11:40:27.094Z,694.62
2023-04-24T11:41:25.596Z,698.26
2023-04-24T11:42:27.040Z,688.88
2023-04-24T11:43:27.019Z,685.34
2023-04-24T11:44:27.016Z,681.14
2023-04-24T11:45:26.988Z,686.75
2023-04-24T11:46:25.796Z,677.68
2023-04-24T11:47:27.023Z,681.83
2023-04-24T11:48:26.954Z,670.18
2023-04-24T11:49:26.943Z,670.18
2023-04-24T11:50:26.937Z,676.99
2023-04-24T11:51:30.691Z,674.25
2023-04-24T11:52:27.894Z,684.63
2023-04-24T11:53:25.929Z,682.53
2023-04-24T11:54:26.874Z,683.23
2023-04-24T11:55:26.854Z,696.79
2023-04-24T11:56:26.845Z,692.45
2023-04-24T11:57:26.822Z,696.07
2023-04-24T11:58:26.812Z,703.41
2023-04-24T11:59:26.813Z,703.41
2023-04-24T12:00:26.797Z,695.34
2023-04-24T12:01:26.819Z,691.74
2023-04-24T12:02:25.623Z,681.83
2023-04-24T12:03:27.122Z,672.21
2023-04-24T12:04:26.979Z,653.12
2023-04-24T12:05:27.035Z,641.19
2023-04-24T12:06:26.701Z,623.21
2023-04-24T12:07:26.693Z,614.59
2023-04-24T12:08:26.685Z,602.92
2023-04-24T12:09:26.676Z,584.43
2023-04-24T12:10:26.650Z,566.55
2023-04-24T12:11:26.647Z,561.78
2023-04-24T12:12:26.640Z,557.09
2023-04-24T12:13:26.600Z,552.01
2023-04-24T12:14:26.608Z,541.26
2023-04-24T12:15:26.576Z,527.14
2023-04-24T12:16:26.621Z,516.53
2023-04-24T12:17:28.570Z,510.20
2023-04-24T12:18:25.094Z,499.88
2023-04-24T12:19:26.537Z,491.77
2023-04-24T12:20:26.523Z,490.32
2023-04-24T12:21:26.492Z,491.04
2023-04-24T12:22:26.485Z,488.88
2023-04-24T12:23:26.467Z,487.81
2023-04-24T12:24:26.482Z,489.96
2023-04-24T12:25:26.495Z,485.68
2023-04-24T12:26:26.427Z,484.97
2023-04-24T12:27:26.428Z,481.47
2023-04-24T12:28:26.473Z,486.74